Mount Carmel, Utah
Current Conditions -  °F | °C
As of 4:55 AM on Monday 24 Nov 2014 (Local Time) from KAZC Reporting Station
Clear Clear  
Wind Chill:   Ceiling: Unl
Heat Index: 11°   Visibility: 10mi
Dew Point:   Wind: 5mph
Humidity: 65%   Direction: 120°ESE
Pressure: 30.25"   Gusts: NA
Location:  37.25°N, 112.67°W
Report Text: KAZC 241155Z AUTO 12004KT 10SM CLR M11/M17 A3025 RMK AO2 T11141168 10148 21114
Loading
Personal Weather Stations






























Interactive Weather Map New forecast layout! Learn more

10-Day Weather Forecast

Advertisements
Track Severe Weather on mobile